createdAt,value
2018-05-29T00:01:38.408Z,8.33
2018-05-29T00:04:05.365Z,7.97
2018-05-29T00:06:33.809Z,8.30
2018-05-29T00:08:59.980Z,8.37
2018-05-29T00:11:26.174Z,8.50
2018-05-29T00:13:54.011Z,7.90
2018-05-29T00:16:21.364Z,8.70
2018-05-29T00:18:47.576Z,8.97
2018-05-29T00:21:13.776Z,8.50
2018-05-29T00:23:42.708Z,8.30
2018-05-29T00:26:08.922Z,8.93
2018-05-29T00:38:26.441Z,9.60
2018-05-29T00:40:52.601Z,9.40
2018-05-29T00:43:18.767Z,8.90
2018-05-29T00:45:45.824Z,10.00
2018-05-29T00:48:12.089Z,9.60
2018-05-29T00:50:38.269Z,8.77
2018-05-29T00:53:12.989Z,8.37
2018-05-29T00:55:39.228Z,8.60
2018-05-29T00:58:05.436Z,9.00
2018-05-29T01:00:32.402Z,8.73
2018-05-29T01:02:58.556Z,8.73
2018-05-29T01:05:24.771Z,7.70
2018-05-29T01:07:50.976Z,8.13
2018-05-29T01:10:17.169Z,8.37
2018-05-29T01:12:43.377Z,8.53
2018-05-29T01:15:09.565Z,8.60
2018-05-29T01:17:35.761Z,9.13
2018-05-29T01:20:01.971Z,8.67
2018-05-29T01:22:28.116Z,8.30
2018-05-29T01:24:54.310Z,9.17
2018-05-29T01:27:20.443Z,8.80
2018-05-29T01:29:46.650Z,7.53
2018-05-29T01:32:12.809Z,8.90
2018-05-29T01:34:39.010Z,9.60
2018-05-29T01:37:05.193Z,8.73
2018-05-29T01:39:35.470Z,8.17
2018-05-29T01:42:01.642Z,8.63
2018-05-29T01:44:28.544Z,8.90
2018-05-29T01:46:54.748Z,9.27
2018-05-29T01:49:20.936Z,8.80
2018-05-29T01:51:47.113Z,9.30
2018-05-29T01:54:13.340Z,9.00
2018-05-29T01:59:13.144Z,9.50
2018-05-29T02:01:40.069Z,9.77
2018-05-29T02:04:06.261Z,9.03
2018-05-29T02:06:32.467Z,9.63
2018-05-29T02:08:58.656Z,8.90
2018-05-29T02:11:24.887Z,9.47
2018-05-29T02:13:51.060Z,8.83
2018-05-29T02:16:17.241Z,9.07
2018-05-29T02:18:43.414Z,9.00
2018-05-29T02:21:09.563Z,8.40
2018-05-29T02:23:35.806Z,8.50
2018-05-29T02:26:02.016Z,9.10
2018-05-29T02:28:28.200Z,9.23
2018-05-29T02:30:55.128Z,9.53
2018-05-29T02:33:21.375Z,9.47
2018-05-29T02:35:48.285Z,10.20
2018-05-29T02:38:15.006Z,8.80
2018-05-29T02:40:41.162Z,8.93
2018-05-29T02:43:07.342Z,9.00
2018-05-29T02:45:34.597Z,10.17
2018-05-29T02:48:00.744Z,9.53
2018-05-29T02:50:26.971Z,9.87
2018-05-29T02:52:53.150Z,9.70
2018-05-29T02:55:20.084Z,9.00
2018-05-29T02:57:46.978Z,10.57
2018-05-29T03:00:13.166Z,10.20
2018-05-29T03:02:40.126Z,9.37
2018-05-29T03:05:07.088Z,9.40
2018-05-29T03:07:33.304Z,10.30
2018-05-29T03:09:59.497Z,9.70
2018-05-29T03:12:25.726Z,9.53
2018-05-29T03:14:51.898Z,10.03
2018-05-29T03:17:18.053Z,9.30
2018-05-29T03:19:45.820Z,9.40
2018-05-29T03:22:12.035Z,10.23
2018-05-29T03:24:41.984Z,10.30
2018-05-29T03:27:08.166Z,9.90
2018-05-29T03:29:34.301Z,11.10
2018-05-29T03:32:00.481Z,10.50
2018-05-29T03:34:26.728Z,10.30
2018-05-29T03:36:52.843Z,10.40
2018-05-29T03:39:19.770Z,10.23
2018-05-29T03:41:45.975Z,10.50
2018-05-29T03:44:12.145Z,10.90
2018-05-29T03:46:39.063Z,10.50
2018-05-29T03:49:06.701Z,10.40
2018-05-29T03:51:32.914Z,10.80
2018-05-29T03:53:59.064Z,10.37
2018-05-29T03:56:25.251Z,10.57
2018-05-29T03:58:52.148Z,10.43
2018-05-29T04:01:18.301Z,11.03
2018-05-29T04:03:45.811Z,11.60
2018-05-29T04:06:11.957Z,10.60
2018-05-29T04:08:38.150Z,11.73
2018-05-29T04:11:04.294Z,12.10
2018-05-29T04:13:31.276Z,12.70
2018-05-29T04:15:57.445Z,11.30
2018-05-29T04:18:23.606Z,12.23
2018-05-29T04:20:49.790Z,11.80
2018-05-29T04:23:16.689Z,12.37
2018-05-29T04:25:42.889Z,12.03
2018-05-29T04:28:09.073Z,13.30
2018-05-29T04:30:35.249Z,12.90
2018-05-29T04:33:01.535Z,13.93
2018-05-29T04:35:28.486Z,12.60
2018-05-29T04:37:55.369Z,14.30
2018-05-29T04:40:21.609Z,12.90
2018-05-29T04:42:47.817Z,12.47
2018-05-29T04:45:14.180Z,13.63
2018-05-29T04:47:40.367Z,12.33
2018-05-29T04:50:06.550Z,12.20
2018-05-29T04:52:32.730Z,12.97
2018-05-29T04:54:58.889Z,12.50
2018-05-29T04:57:25.115Z,14.57
2018-05-29T04:59:52.543Z,12.70
2018-05-29T05:02:18.720Z,12.50
2018-05-29T05:04:44.915Z,12.70
2018-05-29T05:07:11.100Z,12.60
2018-05-29T05:09:37.587Z,12.03
2018-05-29T05:12:03.807Z,12.73
2018-05-29T05:14:30.038Z,13.23
2018-05-29T05:16:56.255Z,14.03
2018-05-29T05:19:22.449Z,13.60
2018-05-29T05:21:48.657Z,13.80
2018-05-29T05:24:14.916Z,14.73
2018-05-29T05:26:41.863Z,13.33
2018-05-29T05:29:08.793Z,13.97
2018-05-29T05:31:34.985Z,13.63
2018-05-29T05:34:01.265Z,13.70
2018-05-29T05:36:28.229Z,14.80
2018-05-29T05:38:54.445Z,14.10
2018-05-29T05:41:21.415Z,14.50
2018-05-29T05:43:47.747Z,15.37
2018-05-29T05:46:14.339Z,13.40
2018-05-29T05:48:40.492Z,15.80
2018-05-29T05:51:07.621Z,13.23
2018-05-29T05:53:33.794Z,14.10
2018-05-29T05:55:59.973Z,14.00
2018-05-29T05:58:26.162Z,14.97
2018-05-29T06:00:52.385Z,14.43
2018-05-29T06:03:18.608Z,13.53
2018-05-29T06:05:44.823Z,13.90
2018-05-29T06:08:11.040Z,13.77
2018-05-29T06:10:37.249Z,14.17
2018-05-29T06:13:03.488Z,13.67
2018-05-29T06:15:30.387Z,14.73
2018-05-29T06:17:56.545Z,13.90
2018-05-29T06:20:22.731Z,14.53
2018-05-29T06:22:48.912Z,13.30
2018-05-29T06:25:15.176Z,13.77
2018-05-29T06:27:41.415Z,13.47
2018-05-29T06:30:07.604Z,13.47
2018-05-29T06:32:34.546Z,12.60
2018-05-29T06:35:01.572Z,12.50
2018-05-29T06:37:29.353Z,12.83
2018-05-29T06:39:55.555Z,14.00
2018-05-29T06:42:21.713Z,13.23
2018-05-29T06:44:48.726Z,12.30
2018-05-29T06:47:14.895Z,12.90
2018-05-29T06:49:41.838Z,12.97
2018-05-29T06:52:08.773Z,13.77
2018-05-29T06:54:34.945Z,14.00
2018-05-29T06:57:01.144Z,12.80
2018-05-29T06:59:28.080Z,14.00
2018-05-29T07:01:55.941Z,12.97
2018-05-29T07:04:22.133Z,14.00
2018-05-29T07:06:48.327Z,13.07
2018-05-29T07:09:28.852Z,13.40
2018-05-29T07:11:55.776Z,13.40
2018-05-29T07:14:22.060Z,13.83
2018-05-29T07:16:48.984Z,11.87
2018-05-29T07:19:15.187Z,14.27
2018-05-29T07:21:41.417Z,14.27
2018-05-29T07:24:08.388Z,12.87
2018-05-29T07:26:35.368Z,12.33
2018-05-29T07:29:01.585Z,12.50
2018-05-29T07:31:28.523Z,12.30
2018-05-29T07:33:56.388Z,11.70
2018-05-29T07:36:25.300Z,11.43
2018-05-29T07:38:51.430Z,11.90
2018-05-29T07:41:17.716Z,12.17
2018-05-29T07:43:43.906Z,11.90
2018-05-29T07:46:10.114Z,12.43
2018-05-29T07:48:36.279Z,11.37
2018-05-29T07:51:02.508Z,12.57
2018-05-29T07:53:29.399Z,13.40
2018-05-29T07:55:56.344Z,12.57
2018-05-29T07:58:23.635Z,13.50
2018-05-29T08:00:49.833Z,14.70
2018-05-29T08:03:16.063Z,13.37
2018-05-29T08:05:43.053Z,12.97
2018-05-29T08:08:09.281Z,12.50
2018-05-29T08:13:25.864Z,12.60
2018-05-29T08:15:52.071Z,13.13
2018-05-29T08:18:18.265Z,13.17
2018-05-29T08:20:44.492Z,14.30
2018-05-29T08:23:10.716Z,12.40
2018-05-29T08:25:37.666Z,14.20
2018-05-29T08:28:03.885Z,12.30
2018-05-29T08:30:30.055Z,12.10
2018-05-29T08:32:56.246Z,12.20
2018-05-29T08:35:22.425Z,11.90
2018-05-29T08:37:49.354Z,12.27
2018-05-29T08:40:15.539Z,11.37
2018-05-29T08:42:41.724Z,12.10
2018-05-29T08:45:08.676Z,11.80
2018-05-29T08:47:35.625Z,10.90
2018-05-29T08:50:02.182Z,12.30
2018-05-29T08:52:28.350Z,11.83
2018-05-29T08:54:54.577Z,12.57
2018-05-29T08:57:20.854Z,12.50
2018-05-29T08:59:46.976Z,12.57
2018-05-29T09:02:13.194Z,12.67
2018-05-29T09:04:41.349Z,12.80
2018-05-29T09:07:07.530Z,14.60
2018-05-29T09:09:33.755Z,13.13
2018-05-29T09:11:59.956Z,13.80
2018-05-29T09:14:28.072Z,12.57
2018-05-29T09:16:54.306Z,12.63
2018-05-29T09:19:20.484Z,14.50
2018-05-29T09:21:47.422Z,14.20
2018-05-29T09:24:14.361Z,14.80
2018-05-29T09:26:40.509Z,15.20
2018-05-29T09:29:07.439Z,15.03
2018-05-29T09:31:34.395Z,16.57
2018-05-29T09:34:01.308Z,13.80
2018-05-29T09:36:27.505Z,15.40
2018-05-29T09:38:53.718Z,14.37
2018-05-29T09:41:19.919Z,15.83
2018-05-29T09:43:46.876Z,16.77
2018-05-29T09:46:13.844Z,18.80
2018-05-29T09:48:40.432Z,16.80
2018-05-29T09:51:07.364Z,19.10
2018-05-29T09:53:33.550Z,15.87
2018-05-29T09:58:32.326Z,15.57
2018-05-29T10:00:58.876Z,15.50
2018-05-29T10:03:25.829Z,14.87
2018-05-29T10:05:53.159Z,14.23
2018-05-29T10:08:19.314Z,14.23
2018-05-29T10:10:47.204Z,13.57
2018-05-29T10:13:13.427Z,13.80
2018-05-29T10:15:41.050Z,14.57
2018-05-29T10:18:07.934Z,13.60
2018-05-29T10:20:34.095Z,13.80
2018-05-29T10:23:00.661Z,14.07
2018-05-29T10:25:27.588Z,13.47
2018-05-29T10:27:55.336Z,14.07
2018-05-29T10:30:21.547Z,15.73
2018-05-29T10:32:48.159Z,13.53
2018-05-29T10:35:14.318Z,13.63
2018-05-29T10:37:40.472Z,13.33
2018-05-29T10:40:06.636Z,15.10
2018-05-29T10:42:38.454Z,16.80
2018-05-29T10:45:04.666Z,14.90
2018-05-29T10:47:30.844Z,13.60
2018-05-29T10:49:57.753Z,13.17
2018-05-29T10:52:23.969Z,14.10
2018-05-29T10:54:50.160Z,14.73
2018-05-29T10:57:16.692Z,14.70
2018-05-29T10:59:43.978Z,13.17
2018-05-29T11:02:10.189Z,13.77
2018-05-29T11:04:36.322Z,14.73
2018-05-29T11:07:02.491Z,14.57
2018-05-29T11:09:29.052Z,12.90
2018-05-29T11:11:56.064Z,12.80
2018-05-29T11:14:22.331Z,14.07
2018-05-29T11:16:48.893Z,13.47
2018-05-29T11:19:15.117Z,13.13
2018-05-29T11:21:42.024Z,11.83
2018-05-29T11:24:08.217Z,11.63
2018-05-29T11:26:34.404Z,11.03
2018-05-29T11:29:01.343Z,10.50
2018-05-29T11:31:28.275Z,12.17
2018-05-29T11:33:55.590Z,11.57
2018-05-29T11:36:21.824Z,11.50
2018-05-29T11:38:47.995Z,12.93
2018-05-29T11:41:14.949Z,12.93
2018-05-29T11:43:41.880Z,14.30
2018-05-29T11:46:08.101Z,12.40
2018-05-29T11:48:34.294Z,12.07
2018-05-29T11:51:00.498Z,13.50
2018-05-29T11:53:26.710Z,13.13
2018-05-29T11:55:53.667Z,12.73
2018-05-29T11:58:19.850Z,12.53
2018-05-29T12:00:46.075Z,13.13
2018-05-29T12:03:13.044Z,12.43
2018-05-29T12:05:40.033Z,11.00
2018-05-29T12:08:06.192Z,11.90
2018-05-29T12:10:33.281Z,13.13
2018-05-29T12:13:00.201Z,12.83
2018-05-29T12:15:26.409Z,11.70
2018-05-29T12:17:52.624Z,11.70
2018-05-29T12:20:19.286Z,11.90
2018-05-29T12:22:45.573Z,12.07
2018-05-29T12:25:11.836Z,11.77
2018-05-29T12:27:38.160Z,10.83
2018-05-29T12:30:04.308Z,11.70
2018-05-29T12:32:30.523Z,11.60
2018-05-29T12:34:56.649Z,11.87
2018-05-29T12:37:22.862Z,11.00
2018-05-29T12:39:49.058Z,12.27
2018-05-29T12:42:16.018Z,12.17
2018-05-29T12:44:42.853Z,11.07
2018-05-29T12:47:09.072Z,11.67
2018-05-29T12:49:36.001Z,11.73
2018-05-29T12:52:03.001Z,10.87
2018-05-29T12:54:29.220Z,13.10
2018-05-29T12:56:55.473Z,11.80
2018-05-29T12:59:21.664Z,10.10
2018-05-29T13:01:47.815Z,12.00
2018-05-29T13:04:14.044Z,12.63
2018-05-29T13:06:40.235Z,11.80
2018-05-29T13:09:07.252Z,12.63
2018-05-29T13:11:33.416Z,12.53
2018-05-29T13:14:00.439Z,13.43
2018-05-29T13:16:27.436Z,15.37
2018-05-29T13:18:53.755Z,14.53
2018-05-29T13:21:20.004Z,15.33
2018-05-29T13:23:46.230Z,16.00
2018-05-29T13:26:12.443Z,15.53
2018-05-29T13:28:40.032Z,15.20
2018-05-29T13:31:06.256Z,13.77
2018-05-29T13:33:32.421Z,14.97
2018-05-29T13:35:58.666Z,15.67
2018-05-29T13:38:25.702Z,14.10
2018-05-29T13:40:52.686Z,14.77
2018-05-29T13:43:18.910Z,14.97
2018-05-29T13:45:45.141Z,14.23
2018-05-29T13:48:11.320Z,14.10
2018-05-29T13:50:37.932Z,14.00
2018-05-29T13:53:04.162Z,14.73
2018-05-29T13:55:30.407Z,12.33
2018-05-29T13:57:56.634Z,14.20
2018-05-29T14:00:22.829Z,12.20
2018-05-29T14:02:49.150Z,12.63
2018-05-29T14:05:15.362Z,10.90
2018-05-29T14:07:42.362Z,13.47
2018-05-29T14:10:08.508Z,11.90
2018-05-29T14:12:34.950Z,13.00
2018-05-29T14:15:01.216Z,14.53
2018-05-29T14:17:27.422Z,12.73
2018-05-29T14:19:54.379Z,13.30
2018-05-29T14:22:20.655Z,13.37
2018-05-29T14:24:47.990Z,12.90
2018-05-29T14:27:14.342Z,13.67
2018-05-29T14:29:40.523Z,13.40
2018-05-29T14:34:57.590Z,12.97
2018-05-29T14:37:24.212Z,13.17
2018-05-29T14:39:50.762Z,13.10
2018-05-29T14:42:17.782Z,13.53
2018-05-29T14:44:44.521Z,13.60
2018-05-29T14:47:10.832Z,13.87
2018-05-29T14:49:38.819Z,12.20
2018-05-29T14:52:05.791Z,13.03
2018-05-29T14:54:32.017Z,12.90
2018-05-29T14:56:58.201Z,12.23
2018-05-29T14:59:25.272Z,11.63
2018-05-29T15:01:52.217Z,11.30
2018-05-29T15:04:19.180Z,10.77
2018-05-29T15:06:45.369Z,10.70
2018-05-29T15:09:11.664Z,10.10
2018-05-29T15:11:37.859Z,9.00
2018-05-29T15:14:04.084Z,9.43
2018-05-29T15:16:30.996Z,10.80
2018-05-29T15:18:57.208Z,9.00
2018-05-29T15:21:23.399Z,9.67
2018-05-29T15:23:50.316Z,9.40
2018-05-29T15:26:17.235Z,9.40
2018-05-29T15:28:43.376Z,9.40
2018-05-29T15:31:09.918Z,8.13
2018-05-29T15:33:36.861Z,9.23
2018-05-29T15:36:03.843Z,8.97
2018-05-29T15:38:30.036Z,9.37
2018-05-29T15:40:57.939Z,9.63
2018-05-29T15:43:24.530Z,9.27
2018-05-29T15:45:50.801Z,9.40
2018-05-29T15:48:17.034Z,10.00
2018-05-29T15:50:43.242Z,10.60
2018-05-29T15:53:10.226Z,9.07
2018-05-29T15:55:36.497Z,8.90
2018-05-29T15:58:03.111Z,10.00
2018-05-29T16:00:29.314Z,8.80
2018-05-29T16:02:56.595Z,9.63
2018-05-29T16:05:24.210Z,11.00
2018-05-29T16:07:51.601Z,11.67
2018-05-29T16:10:17.829Z,10.20
2018-05-29T16:12:44.025Z,10.13
2018-05-29T16:15:10.358Z,10.13
2018-05-29T16:17:36.546Z,9.90
2018-05-29T16:20:02.732Z,10.10
2018-05-29T16:22:29.344Z,10.33
2018-05-29T16:24:56.286Z,12.23
2018-05-29T16:27:23.236Z,11.03
2018-05-29T16:29:50.224Z,11.07
2018-05-29T16:32:16.478Z,10.33
2018-05-29T16:34:42.799Z,10.77
2018-05-29T16:37:08.970Z,10.90
2018-05-29T16:39:35.906Z,10.67
2018-05-29T16:42:02.862Z,9.60
2018-05-29T16:44:29.798Z,9.67
2018-05-29T16:46:56.754Z,8.53
2018-05-29T16:49:23.682Z,10.03
2018-05-29T16:51:50.643Z,9.03
2018-05-29T16:54:17.582Z,9.40
2018-05-29T16:56:44.544Z,9.23
2018-05-29T16:59:10.755Z,9.77
2018-05-29T17:01:37.761Z,9.17
2018-05-29T17:04:03.992Z,9.00
2018-05-29T17:06:30.252Z,8.67
2018-05-29T17:08:56.487Z,9.50
2018-05-29T17:11:23.420Z,10.00
2018-05-29T17:13:49.673Z,8.43
2018-05-29T17:16:16.681Z,9.60
2018-05-29T17:18:42.901Z,9.00
2018-05-29T17:21:09.099Z,9.00
2018-05-29T17:23:35.365Z,8.50
2018-05-29T17:26:01.586Z,8.53
2018-05-29T17:28:27.816Z,8.87
2018-05-29T17:30:54.034Z,9.83
2018-05-29T17:33:20.294Z,9.10
2018-05-29T17:35:46.525Z,8.50
2018-05-29T17:38:12.808Z,8.60
2018-05-29T17:40:39.010Z,8.60
2018-05-29T17:43:06.032Z,8.63
2018-05-29T17:45:33.053Z,8.27
2018-05-29T17:47:59.385Z,9.03
2018-05-29T17:50:26.509Z,8.40
2018-05-29T17:52:53.447Z,7.37
2018-05-29T17:55:19.991Z,7.60
2018-05-29T17:57:46.377Z,7.40
2018-05-29T18:00:13.655Z,7.50
2018-05-29T18:02:40.523Z,7.37
2018-05-29T18:05:07.578Z,7.53
2018-05-29T18:07:33.950Z,7.33
2018-05-29T18:10:01.363Z,8.20
2018-05-29T18:12:27.889Z,7.30
2018-05-29T18:14:54.908Z,7.90
2018-05-29T18:17:21.143Z,8.03
2018-05-29T18:19:48.934Z,8.20
2018-05-29T18:22:15.242Z,8.57
2018-05-29T18:24:41.560Z,8.43
2018-05-29T18:27:08.012Z,7.70
2018-05-29T18:29:34.366Z,7.70
2018-05-29T18:32:00.655Z,8.53
2018-05-29T18:34:27.582Z,7.83
2018-05-29T18:36:53.871Z,8.70
2018-05-29T18:39:20.122Z,7.97
2018-05-29T18:41:47.370Z,8.77
2018-05-29T18:44:13.567Z,8.63
2018-05-29T18:46:39.807Z,9.50
2018-05-29T18:49:06.174Z,9.13
2018-05-29T18:51:32.328Z,8.80
2018-05-29T18:53:58.645Z,9.63
2018-05-29T18:56:24.909Z,9.07
2018-05-29T18:58:51.885Z,8.70
2018-05-29T19:01:18.191Z,9.30
2018-05-29T19:03:44.369Z,9.77
2018-05-29T19:06:10.603Z,8.27
2018-05-29T19:08:36.873Z,10.47
2018-05-29T19:11:03.778Z,9.93
2018-05-29T19:13:29.947Z,9.27
2018-05-29T19:15:57.322Z,10.40
2018-05-29T19:18:23.485Z,10.33
2018-05-29T19:20:51.429Z,9.60
2018-05-29T19:23:19.959Z,10.77
2018-05-29T19:25:47.001Z,10.17
2018-05-29T19:28:14.892Z,10.03
2018-05-29T19:30:41.832Z,9.80
2018-05-29T19:33:08.852Z,11.73
2018-05-29T19:35:36.206Z,9.90
2018-05-29T19:38:02.467Z,9.67
2018-05-29T19:40:28.694Z,9.77
2018-05-29T19:42:54.912Z,10.60
2018-05-29T19:45:21.087Z,9.03
2018-05-29T19:47:47.260Z,9.80
2018-05-29T19:50:14.214Z,10.83
2018-05-29T19:52:41.187Z,8.23
2018-05-29T19:55:09.156Z,8.30
2018-05-29T19:57:35.393Z,9.20
2018-05-29T20:00:01.598Z,9.70
2018-05-29T20:02:28.341Z,8.30
2018-05-29T20:04:55.639Z,9.93
2018-05-29T20:07:22.622Z,10.40
2018-05-29T20:09:48.848Z,8.67
2018-05-29T20:12:15.126Z,10.80
2018-05-29T20:14:43.033Z,9.90
2018-05-29T20:17:10.928Z,10.33
2018-05-29T20:19:37.124Z,10.17
2018-05-29T20:22:03.325Z,9.10
2018-05-29T20:24:29.936Z,8.23
2018-05-29T20:26:56.963Z,9.30
2018-05-29T20:29:23.934Z,10.80
2018-05-29T20:31:50.087Z,9.70
2018-05-29T20:34:17.051Z,10.50
2018-05-29T20:36:43.250Z,9.70
2018-05-29T20:39:09.889Z,9.80
2018-05-29T20:41:37.833Z,7.53
2018-05-29T20:44:05.153Z,9.10
2018-05-29T20:46:32.465Z,8.80
2018-05-29T20:48:59.915Z,12.80
2018-05-29T20:51:26.865Z,11.00
2018-05-29T20:53:54.728Z,8.70
2018-05-29T20:56:21.300Z,7.83
2018-05-29T20:58:47.555Z,7.57
2018-05-29T21:01:15.197Z,9.10
2018-05-29T21:03:41.432Z,7.93
2018-05-29T21:06:08.585Z,9.50
2018-05-29T21:08:34.858Z,9.07
2018-05-29T21:11:01.901Z,7.50
2018-05-29T21:13:30.859Z,9.97
2018-05-29T21:15:57.068Z,10.03
2018-05-29T21:18:23.272Z,8.40
2018-05-29T21:20:53.932Z,7.23
2018-05-29T21:23:20.293Z,8.00
2018-05-29T21:26:01.384Z,7.07
2018-05-29T21:28:27.579Z,8.07
2018-05-29T21:30:53.750Z,6.83
2018-05-29T21:33:19.977Z,7.20
2018-05-29T21:35:46.154Z,7.37
2018-05-29T21:38:12.466Z,6.43
2018-05-29T21:40:39.377Z,7.23
2018-05-29T21:43:06.358Z,7.07
2018-05-29T21:45:32.589Z,7.60
2018-05-29T21:47:59.923Z,6.50
2018-05-29T21:50:27.860Z,7.60
2018-05-29T21:52:54.057Z,7.00
2018-05-29T21:55:20.245Z,8.70
2018-05-29T21:57:48.166Z,6.77
2018-05-29T22:00:14.461Z,7.63
2018-05-29T22:02:41.395Z,10.40
2018-05-29T22:05:07.608Z,8.43
2018-05-29T22:07:33.789Z,7.27
2018-05-29T22:10:00.792Z,7.87
2018-05-29T22:12:27.758Z,7.77
2018-05-29T22:14:55.668Z,12.40
2018-05-29T22:17:23.603Z,9.80
2018-05-29T22:19:50.946Z,10.47
2018-05-29T22:22:17.201Z,7.93
2018-05-29T22:24:59.104Z,9.60
2018-05-29T22:27:25.305Z,7.80
2018-05-29T22:29:52.653Z,7.30
2018-05-29T22:32:18.865Z,8.03
2018-05-29T22:34:45.780Z,9.90
2018-05-29T22:37:13.429Z,8.57
2018-05-29T22:39:40.384Z,7.90
2018-05-29T22:42:06.571Z,9.53
2018-05-29T22:44:33.521Z,8.77
2018-05-29T22:47:01.240Z,9.50
2018-05-29T22:49:28.194Z,8.40
2018-05-29T22:51:55.832Z,7.93
2018-05-29T22:54:23.200Z,7.77
2018-05-29T22:56:49.997Z,8.07
2018-05-29T22:59:17.611Z,8.17
2018-05-29T23:01:44.633Z,6.67
2018-05-29T23:04:12.176Z,8.03
2018-05-29T23:06:39.723Z,7.47
2018-05-29T23:09:06.678Z,7.27
2018-05-29T23:11:33.608Z,7.67
2018-05-29T23:14:00.569Z,7.13
2018-05-29T23:16:27.481Z,7.70
2018-05-29T23:18:53.641Z,9.63
2018-05-29T23:21:20.591Z,8.20
2018-05-29T23:23:47.141Z,8.37
2018-05-29T23:26:14.422Z,8.03
2018-05-29T23:28:40.973Z,7.17
2018-05-29T23:31:07.183Z,7.53
2018-05-29T23:33:33.442Z,7.40
2018-05-29T23:35:59.643Z,6.80
2018-05-29T23:38:25.866Z,9.20
2018-05-29T23:40:52.049Z,7.50
2018-05-29T23:43:19.761Z,10.60
2018-05-29T23:45:46.758Z,8.63
2018-05-29T23:48:13.302Z,9.60
2018-05-29T23:50:39.504Z,7.97
2018-05-29T23:53:05.688Z,8.50
2018-05-29T23:55:32.302Z,7.67
2018-05-29T23:57:58.476Z,8.03
